createdAt,value
2019-05-17T00:01:07.406Z,13.04
2019-05-17T00:05:31.825Z,13.06
2019-05-17T00:09:57.088Z,13.10
2019-05-17T00:14:21.662Z,13.10
2019-05-17T00:18:46.368Z,13.07
2019-05-17T00:23:10.365Z,13.02
2019-05-17T00:27:36.607Z,12.94
2019-05-17T00:32:01.515Z,12.94
2019-05-17T00:36:26.973Z,12.93
2019-05-17T00:40:51.567Z,12.90
2019-05-17T00:45:17.636Z,12.78
2019-05-17T00:49:41.657Z,12.86
2019-05-17T00:54:06.878Z,12.83
2019-05-17T00:58:31.049Z,12.87
2019-05-17T01:02:57.214Z,12.80
2019-05-17T01:07:21.795Z,12.72
2019-05-17T01:11:47.538Z,12.78
2019-05-17T01:16:11.819Z,12.80
2019-05-17T01:20:37.002Z,12.78
2019-05-17T01:25:02.413Z,12.74
2019-05-17T01:29:28.518Z,12.75
2019-05-17T01:33:52.803Z,12.76
2019-05-17T01:38:17.779Z,12.70
2019-05-17T01:42:42.717Z,12.67
2019-05-17T01:47:07.531Z,12.67
2019-05-17T01:51:31.415Z,12.70
2019-05-17T01:55:56.820Z,12.78
2019-05-17T02:00:21.672Z,12.83
2019-05-17T02:04:46.749Z,12.80
2019-05-17T02:09:10.574Z,12.80
2019-05-17T02:13:34.430Z,12.79
2019-05-17T02:17:58.740Z,12.85
2019-05-17T02:22:22.921Z,12.83
2019-05-17T02:26:48.123Z,12.82
2019-05-17T02:31:13.554Z,12.83
2019-05-17T02:35:37.780Z,12.85
2019-05-17T02:40:07.202Z,12.81
2019-05-17T02:44:27.875Z,12.78
2019-05-17T02:48:53.803Z,12.80
2019-05-17T02:53:18.600Z,12.78
2019-05-17T02:57:43.633Z,12.76
2019-05-17T03:02:07.805Z,12.71
2019-05-17T03:06:32.888Z,12.70
2019-05-17T03:10:57.015Z,12.75
2019-05-17T03:15:23.370Z,12.73
2019-05-17T03:19:46.685Z,12.73
2019-05-17T03:24:13.759Z,12.71
2019-05-17T03:28:36.422Z,12.67
2019-05-17T03:33:07.436Z,12.70
2019-05-17T03:37:32.883Z,12.72
2019-05-17T03:41:53.769Z,12.74
2019-05-17T03:46:18.449Z,12.72
2019-05-17T03:50:43.575Z,12.64
2019-05-17T03:55:08.518Z,12.62
2019-05-17T03:59:33.796Z,12.57
2019-05-17T04:03:57.567Z,12.49
2019-05-17T04:08:23.004Z,12.52
2019-05-17T04:12:47.494Z,12.53
2019-05-17T04:17:13.082Z,12.46
2019-05-17T04:21:37.943Z,12.41
2019-05-17T04:26:04.117Z,12.34
2019-05-17T04:30:28.172Z,12.38
2019-05-17T04:34:52.672Z,12.36
2019-05-17T04:39:17.382Z,12.33
2019-05-17T04:43:42.412Z,12.39
2019-05-17T04:48:06.863Z,12.46
2019-05-17T04:52:33.655Z,12.44
2019-05-17T04:56:56.714Z,12.43
2019-05-17T05:01:23.623Z,12.38
2019-05-17T05:05:46.710Z,12.35
2019-05-17T05:10:13.525Z,12.32
2019-05-17T05:14:37.231Z,12.33
2019-05-17T05:19:02.959Z,12.38
2019-05-17T05:23:27.081Z,12.50
2019-05-17T05:27:51.668Z,12.49
2019-05-17T05:32:15.752Z,12.51
2019-05-17T05:36:41.722Z,12.59
2019-05-17T05:41:06.081Z,12.65
2019-05-17T05:45:32.098Z,12.66
2019-05-17T05:49:56.843Z,12.74
2019-05-17T05:54:22.530Z,12.84
2019-05-17T05:58:47.771Z,12.96
2019-05-17T06:03:12.418Z,13.10
2019-05-17T06:07:36.498Z,13.22
2019-05-17T06:12:02.436Z,13.36
2019-05-17T06:16:26.914Z,13.50
2019-05-17T06:20:52.375Z,13.64
2019-05-17T06:25:16.936Z,13.67
2019-05-17T06:29:41.542Z,14.04
2019-05-17T06:34:06.294Z,14.55
2019-05-17T06:38:32.643Z,14.63
2019-05-17T06:42:55.814Z,14.91
2019-05-17T06:47:19.619Z,15.04
2019-05-17T06:51:43.503Z,15.04
2019-05-17T06:56:07.858Z,15.40
2019-05-17T07:00:31.978Z,15.87
2019-05-17T07:04:57.458Z,16.15
2019-05-17T07:09:22.079Z,16.24
2019-05-17T07:13:46.104Z,15.72
2019-05-17T07:18:10.530Z,15.40
2019-05-17T07:22:34.726Z,15.50
2019-05-17T07:26:59.209Z,15.48
2019-05-17T07:31:23.672Z,15.74
2019-05-17T07:35:49.972Z,15.91
2019-05-17T07:40:14.375Z,15.96
2019-05-17T07:44:40.276Z,15.88
2019-05-17T07:49:04.186Z,15.88
2019-05-17T07:53:30.504Z,15.92
2019-05-17T07:57:54.097Z,16.11
2019-05-17T08:02:19.816Z,16.07
2019-05-17T08:06:44.021Z,15.89
2019-05-17T08:11:10.515Z,15.77
2019-05-17T08:15:33.928Z,15.84
2019-05-17T08:20:00.318Z,16.00
2019-05-17T08:24:23.865Z,15.89
2019-05-17T08:28:49.937Z,15.82
2019-05-17T08:33:13.488Z,15.66
2019-05-17T08:37:41.869Z,15.32
2019-05-17T08:42:03.484Z,15.24
2019-05-17T08:46:27.573Z,15.30
2019-05-17T08:50:51.552Z,15.30
2019-05-17T08:55:15.891Z,15.24
2019-05-17T08:59:40.413Z,15.24
2019-05-17T09:04:05.652Z,15.05
2019-05-17T09:08:30.102Z,14.82
2019-05-17T09:12:53.906Z,14.69
2019-05-17T09:17:19.414Z,14.67
2019-05-17T09:21:43.894Z,14.74
2019-05-17T09:26:09.918Z,14.74
2019-05-17T09:30:33.587Z,15.00
2019-05-17T09:34:57.395Z,15.20
2019-05-17T09:39:21.363Z,15.33
2019-05-17T09:43:45.474Z,15.14
2019-05-17T09:48:10.402Z,14.97
2019-05-17T09:52:34.475Z,14.75
2019-05-17T09:57:00.454Z,14.75
2019-05-17T10:01:24.782Z,14.73
2019-05-17T10:05:49.532Z,14.74
2019-05-17T10:10:14.176Z,14.85
2019-05-17T10:14:38.269Z,15.02
2019-05-17T10:19:02.793Z,15.01
2019-05-17T10:23:26.897Z,15.01
2019-05-17T10:27:50.774Z,15.05
2019-05-17T10:32:14.840Z,15.15
2019-05-17T10:36:40.152Z,15.00
2019-05-17T10:41:04.453Z,15.00
2019-05-17T10:45:30.498Z,15.02
2019-05-17T10:49:54.515Z,14.99
2019-05-17T10:54:20.700Z,14.99
2019-05-17T10:58:44.748Z,14.89
2019-05-17T11:03:09.766Z,14.89
2019-05-17T11:07:34.981Z,14.89
2019-05-17T11:11:58.858Z,14.96
2019-05-17T11:16:23.042Z,15.05
2019-05-17T11:20:47.462Z,15.24
2019-05-17T11:25:11.996Z,15.24
2019-05-17T11:29:35.942Z,15.43
2019-05-17T11:33:59.831Z,15.65
2019-05-17T11:38:24.036Z,15.69
2019-05-17T11:42:48.222Z,15.66
2019-05-17T11:47:12.182Z,15.57
2019-05-17T11:51:36.304Z,15.66
2019-05-17T11:56:00.497Z,15.67
2019-05-17T12:00:25.225Z,15.73
2019-05-17T12:04:50.362Z,15.91
2019-05-17T12:09:15.289Z,15.92
2019-05-17T12:13:39.398Z,15.81
2019-05-17T12:18:03.676Z,15.67
2019-05-17T12:22:28.964Z,15.47
2019-05-17T12:26:52.899Z,15.41
2019-05-17T12:31:18.095Z,15.24
2019-05-17T12:35:42.198Z,15.16
2019-05-17T12:40:09.544Z,14.97
2019-05-17T12:44:36.927Z,14.83
2019-05-17T12:49:01.939Z,14.82
2019-05-17T12:53:25.745Z,15.00
2019-05-17T12:57:49.955Z,14.93
2019-05-17T13:02:13.861Z,15.08
2019-05-17T13:06:37.704Z,15.29
2019-05-17T13:11:01.749Z,15.33
2019-05-17T13:15:26.384Z,15.54
2019-05-17T13:19:50.216Z,15.58
2019-05-17T13:24:14.481Z,15.64
2019-05-17T13:28:38.676Z,15.72
2019-05-17T13:33:02.858Z,15.66
2019-05-17T13:37:27.095Z,15.50
2019-05-17T13:41:51.545Z,15.51
2019-05-17T13:46:15.756Z,15.57
2019-05-17T13:50:39.698Z,15.61
2019-05-17T13:55:05.669Z,15.72
2019-05-17T13:59:29.653Z,15.73
2019-05-17T14:03:53.771Z,15.74
2019-05-17T14:08:19.466Z,15.72
2019-05-17T14:12:43.677Z,15.82
2019-05-17T14:17:07.569Z,15.90
2019-05-17T14:21:32.837Z,15.97
2019-05-17T14:25:56.961Z,15.97
2019-05-17T14:30:22.643Z,15.92
2019-05-17T14:34:46.496Z,15.86
2019-05-17T14:39:10.820Z,15.76
2019-05-17T14:43:34.966Z,15.81
2019-05-17T14:48:01.768Z,15.94
2019-05-17T14:52:25.891Z,16.05
2019-05-17T14:56:55.424Z,16.18
2019-05-17T15:01:19.837Z,16.13
2019-05-17T15:05:44.185Z,16.02
2019-05-17T15:10:09.048Z,16.00
2019-05-17T15:14:34.043Z,16.03
2019-05-17T15:18:58.271Z,16.10
2019-05-17T15:23:23.143Z,16.28
2019-05-17T15:27:48.169Z,16.44
2019-05-17T15:32:12.349Z,16.53
2019-05-17T15:36:36.561Z,16.57
2019-05-17T15:41:00.419Z,16.65
2019-05-17T15:45:24.327Z,16.68
2019-05-17T15:49:48.518Z,16.76
2019-05-17T15:54:12.717Z,16.58
2019-05-17T15:58:36.909Z,16.60
2019-05-17T16:03:00.776Z,16.57
2019-05-17T16:07:24.983Z,16.63
2019-05-17T16:11:48.867Z,16.60
2019-05-17T16:16:13.051Z,16.60
2019-05-17T16:20:36.926Z,16.51
2019-05-17T16:25:00.913Z,16.49
2019-05-17T16:29:25.019Z,16.63
2019-05-17T16:33:50.887Z,16.63
2019-05-17T16:38:15.083Z,16.61
2019-05-17T16:42:39.826Z,16.61
2019-05-17T16:47:04.053Z,16.62
2019-05-17T16:51:28.911Z,16.65
2019-05-17T16:55:53.025Z,16.63
2019-05-17T17:00:30.812Z,16.56
2019-05-17T17:04:54.843Z,16.60
2019-05-17T17:09:19.126Z,16.67
2019-05-17T17:13:43.296Z,16.72
2019-05-17T17:18:07.874Z,16.77
2019-05-17T17:22:33.068Z,16.69
2019-05-17T17:26:57.159Z,16.77
2019-05-17T17:31:21.405Z,16.80
2019-05-17T17:35:45.556Z,16.80
2019-05-17T17:40:10.272Z,16.71
2019-05-17T17:44:34.430Z,16.72
2019-05-17T17:48:59.318Z,16.73
2019-05-17T17:53:24.346Z,16.69
2019-05-17T17:57:49.761Z,16.66
2019-05-17T18:02:14.340Z,16.65
2019-05-17T18:06:38.455Z,16.64
2019-05-17T18:11:03.663Z,16.63
2019-05-17T18:15:39.972Z,16.61
2019-05-17T18:20:04.616Z,16.56
2019-05-17T18:24:28.825Z,16.52
2019-05-17T18:28:52.952Z,16.45
2019-05-17T18:33:17.779Z,16.45
2019-05-17T18:37:41.712Z,16.41
2019-05-17T18:42:05.935Z,16.39
2019-05-17T18:46:30.558Z,16.37
2019-05-17T18:50:54.919Z,16.31
2019-05-17T18:55:20.383Z,16.27
2019-05-17T18:59:44.448Z,16.26
2019-05-17T19:04:09.020Z,16.23
2019-05-17T19:08:37.371Z,16.20
2019-05-17T19:13:01.613Z,16.16
2019-05-17T19:17:25.522Z,16.12
2019-05-17T19:21:55.114Z,16.07
2019-05-17T19:26:20.105Z,16.05
2019-05-17T19:30:44.245Z,16.02
2019-05-17T19:35:09.015Z,15.99
2019-05-17T19:39:33.235Z,15.93
2019-05-17T19:43:58.667Z,15.88
2019-05-17T19:48:24.942Z,15.84
2019-05-17T19:52:49.023Z,15.82
2019-05-17T19:57:13.381Z,15.78
2019-05-17T20:01:37.280Z,15.70
2019-05-17T20:06:01.545Z,15.67
2019-05-17T20:10:25.903Z,15.67
2019-05-17T20:14:49.858Z,15.60
2019-05-17T20:19:14.109Z,15.56
2019-05-17T20:23:38.548Z,15.56
2019-05-17T20:28:02.391Z,15.50
2019-05-17T20:32:26.939Z,15.49
2019-05-17T20:36:50.951Z,15.47
2019-05-17T20:41:17.175Z,15.42
2019-05-17T20:45:41.375Z,15.41
2019-05-17T20:50:06.490Z,15.40
2019-05-17T20:54:30.870Z,15.35
2019-05-17T20:58:54.845Z,15.32
2019-05-17T21:03:19.064Z,15.31
2019-05-17T21:07:43.320Z,15.29
2019-05-17T21:12:07.739Z,15.21
2019-05-17T21:16:31.634Z,15.21
2019-05-17T21:20:56.440Z,15.14
2019-05-17T21:25:20.621Z,15.05
2019-05-17T21:29:44.945Z,14.93
2019-05-17T21:34:09.018Z,14.93
2019-05-17T21:38:32.822Z,14.84
2019-05-17T21:42:56.816Z,14.79
2019-05-17T21:47:20.672Z,14.72
2019-05-17T21:51:44.566Z,14.62
2019-05-17T21:56:08.808Z,14.55
2019-05-17T22:01:10.756Z,14.44
2019-05-17T22:05:35.531Z,14.34
2019-05-17T22:09:59.420Z,14.20
2019-05-17T22:14:24.539Z,14.13
2019-05-17T22:18:49.341Z,14.08
2019-05-17T22:23:13.831Z,13.93
2019-05-17T22:27:37.798Z,13.93
2019-05-17T22:32:01.674Z,13.90
2019-05-17T22:36:25.809Z,13.82
2019-05-17T22:40:50.637Z,13.74
2019-05-17T22:45:14.884Z,13.70
2019-05-17T22:49:38.988Z,13.65
2019-05-17T22:54:03.963Z,13.62
2019-05-17T22:58:29.860Z,13.54
2019-05-17T23:02:53.778Z,13.54
2019-05-17T23:07:18.473Z,13.51
2019-05-17T23:11:43.719Z,13.52
2019-05-17T23:16:10.659Z,13.52
2019-05-17T23:20:34.788Z,13.51
2019-05-17T23:25:00.217Z,13.54
2019-05-17T23:29:24.430Z,13.57
2019-05-17T23:33:49.842Z,13.59
2019-05-17T23:38:13.725Z,13.64
2019-05-17T23:42:37.952Z,13.69
2019-05-17T23:47:07.065Z,13.71
2019-05-17T23:51:28.261Z,13.74
2019-05-17T23:55:52.059Z,13.74
